Time;durP1;ratioP1;P1;durP2;ratioP2;P2;SDS_P1;SDS_P2;PMS_P1;PMS_P2;Temp;Humidity;BMP_temperature;BMP_pressure;BME280_temperature;BME280_humidity;BME280_pressure;Samples;Min_cycle;Max_cycle;Signal;HPM_P1;HPM_P2
2022/02/14 00:01:09;;;;;;;7.28;1.75;;;;;;;0.99;100.00;100283.84;4942356;28;20061;-58
2022/02/14 00:03:54;;;;;;;3.67;1.30;;;;;;;0.84;100.00;100278.22;4973723;28;20081;-61
2022/02/14 00:06:40;;;;;;;4.93;1.70;;;;;;;0.71;100.00;100211.75;4977556;28;20451;-64
2022/02/14 00:09:24;;;;;;;3.83;1.60;;;;;;;0.93;100.00;100254.94;4972148;28;20049;-60
2022/02/14 00:12:09;;;;;;;;;;;;;;;0.92;100.00;100268.84;4949871;28;20545;-59
2022/02/14 00:14:55;;;;;;;3.50;1.45;;;;;;;0.91;100.00;100267.09;4952380;28;19933;-61
2022/02/14 00:17:41;;;;;;;3.22;1.23;;;;;;;0.67;100.00;100275.13;4986213;28;20076;-59
2022/02/14 00:20:26;;;;;;;5.03;1.50;;;;;;;0.53;100.00;100253.03;5006398;28;20143;-58
2022/02/14 00:23:10;;;;;;;4.32;1.48;;;;;;;0.54;100.00;100257.38;4991213;28;20423;-61
2022/02/14 00:25:54;;;;;;;4.47;1.52;;;;;;;0.56;100.00;100232.25;4967157;28;20126;-63
2022/02/14 00:28:39;;;;;;;2.65;1.10;;;;;;;0.77;100.00;100265.84;4974876;28;20105;-59
2022/02/14 00:31:23;;;;;;;3.63;1.20;;;;;;;0.83;100.00;100258.19;4980691;28;20149;-61
2022/02/14 00:34:08;;;;;;;4.60;1.58;;;;;;;0.39;100.00;100136.13;4999936;28;20081;-59
2022/02/14 00:36:52;;;;;;;4.75;1.48;;;;;;;0.77;100.00;100217.16;4991303;28;20053;-63
2022/02/14 00:39:37;;;;;;;3.97;1.33;;;;;;;0.65;100.00;100195.94;4990443;28;20107;-56
2022/02/14 00:42:21;;;;;;;3.95;1.30;;;;;;;0.97;100.00;100241.13;4983592;28;20109;-59
2022/02/14 00:45:07;;;;;;;5.45;1.35;;;;;;;1.08;100.00;100239.69;4970016;28;20525;-66
2022/02/14 00:47:51;;;;;;;;;;;;;;;0.91;100.00;100238.38;4981457;28;20483;-59
2022/02/14 00:50:36;;;;;;;3.15;1.10;;;;;;;0.71;100.00;100248.28;4992165;28;19925;-63
2022/02/14 00:53:21;;;;;;;4.22;1.50;;;;;;;0.75;100.00;100247.50;4973676;28;20584;-59
2022/02/14 00:56:05;;;;;;;3.40;1.42;;;;;;;0.83;100.00;100248.59;4973657;28;20062;-59
2022/02/14 00:58:50;;;;;;;4.30;1.92;;;;;;;0.65;100.00;100209.00;4960781;28;20130;-56
2022/02/14 01:01:34;;;;;;;4.57;1.42;;;;;;;0.27;100.00;100201.84;4970577;28;20864;-62
2022/02/14 01:04:18;;;;;;;5.18;1.60;;;;;;;0.54;100.00;100238.22;5001712;28;20057;-56
2022/02/14 01:07:03;;;;;;;3.38;1.50;;;;;;;0.23;100.00;100193.94;4991160;28;20140;-59
2022/02/14 01:09:48;;;;;;;2.83;1.48;;;;;;;0.52;100.00;100219.06;4954387;28;20097;-60
2022/02/14 01:12:33;;;;;;;4.10;1.60;;;;;;;0.49;100.00;100204.22;4982232;28;20081;-60
2022/02/14 01:15:17;;;;;;;3.70;1.67;;;;;;;0.57;100.00;100222.66;4973377;28;20132;-56
2022/02/14 01:18:02;;;;;;;4.07;0.98;;;;;;;0.64;100.00;100222.91;4979810;28;20064;-60
2022/02/14 01:20:47;;;;;;;2.50;1.15;;;;;;;0.69;100.00;100213.44;4977925;28;20113;-60
2022/02/14 01:23:32;;;;;;;6.38;1.90;;;;;;;0.72;100.00;100200.50;4986783;28;20419;-55
2022/02/14 01:26:16;;;;;;;3.33;1.30;;;;;;;0.78;100.00;100205.00;4976815;28;20438;-59
2022/02/14 01:29:01;;;;;;;3.47;1.13;;;;;;;0.37;100.00;100158.66;4983784;28;20072;-61
2022/02/14 01:31:45;;;;;;;5.63;1.50;;;;;;;0.45;100.00;100197.16;4963943;28;20060;-56
2022/02/14 01:34:30;;;;;;;3.75;1.20;;;;;;;0.30;100.00;100135.88;4996148;28;20426;-59
2022/02/14 01:37:15;;;;;;;3.63;1.58;;;;;;;0.64;100.00;100182.88;4970074;28;20193;-60
2022/02/14 01:40:00;;;;;;;4.60;1.40;;;;;;;0.70;100.00;100191.72;4969708;28;20074;-59
2022/02/14 01:42:45;;;;;;;3.17;1.60;;;;;;;0.70;100.00;100199.56;4952068;28;20569;-61
2022/02/14 01:45:29;;;;;;;3.63;1.23;;;;;;;0.11;100.00;100149.28;4972535;28;20101;-61
2022/02/14 01:48:14;;;;;;;4.30;1.70;;;;;;;0.58;100.00;100188.81;4960342;28;20145;-64
2022/02/14 01:50:58;;;;;;;2.92;1.30;;;;;;;0.53;100.00;100190.41;4976198;28;20419;-61
2022/02/14 01:53:43;;;;;;;2.88;1.30;;;;;;;0.58;100.00;100177.47;4987124;28;20154;-60
2022/02/14 01:56:28;;;;;;;5.55;1.42;;;;;;;0.52;100.00;100172.13;4973784;28;20057;-61
2022/02/14 01:59:12;;;;;;;4.38;1.30;;;;;;;0.66;100.00;100182.06;4964964;28;20104;-61
2022/02/14 02:01:57;;;;;;;3.15;1.35;;;;;;;0.34;100.00;100125.56;4974017;28;20113;-60
2022/02/14 02:04:43;;;;;;;3.53;1.10;;;;;;;0.41;100.00;100130.09;4958840;28;20121;-61
2022/02/14 02:07:28;;;;;;;2.38;1.50;;;;;;;0.52;100.00;100154.75;4948284;28;20193;-63
2022/02/14 02:10:13;;;;;;;3.17;1.40;;;;;;;0.69;100.00;100163.88;4988213;28;20470;-61
2022/02/14 02:12:59;;;;;;;5.82;1.15;;;;;;;0.32;100.00;100161.16;4976961;28;20065;-60
2022/02/14 02:15:43;;;;;;;4.25;1.40;;;;;;;0.38;100.00;100150.00;4977501;28;20431;-62
2022/02/14 02:18:28;;;;;;;6.25;1.58;;;;;;;0.46;100.00;100145.84;4980091;28;20159;-62
2022/02/14 02:21:12;;;;;;;3.75;1.27;;;;;;;0.35;100.00;100162.97;4991875;28;20057;-63
2022/02/14 02:23:58;;;;;;;6.28;1.30;;;;;;;-0.06;100.00;100108.00;4968611;28;20205;-59
2022/02/14 02:26:42;;;;;;;3.97;1.45;;;;;;;0.36;100.00;100157.81;4971508;28;20117;-61
2022/02/14 02:29:27;;;;;;;3.70;1.42;;;;;;;-0.09;100.00;100107.91;4970060;28;20050;-59
2022/02/14 02:32:13;;;;;;;2.55;1.30;;;;;;;0.13;100.00;100158.91;4967042;28;20117;-58
2022/02/14 02:35:00;;;;;;;3.08;1.30;;;;;;;0.28;100.00;100153.22;4991648;28;20053;-60
2022/02/14 02:37:47;;;;;;;6.60;1.42;;;;;;;0.39;100.00;100151.78;4947045;28;20069;-58
2022/02/14 02:40:32;;;;;;;6.32;1.27;;;;;;;0.56;100.00;100145.25;4985372;28;20070;-62
2022/02/14 02:43:17;;;;;;;3.42;1.17;;;;;;;0.60;100.00;100137.56;5001023;28;20163;-60
2022/02/14 02:46:02;;;;;;;3.10;1.20;;;;;;;0.45;100.00;100144.09;4974422;28;20120;-61
2022/02/14 02:48:46;;;;;;;4.30;1.23;;;;;;;0.37;100.00;100138.69;4992607;28;20387;-64
2022/02/14 02:51:30;;;;;;;3.25;1.25;;;;;;;0.07;100.00;100105.72;4993662;28;20132;-61
2022/02/14 02:54:17;;;;;;;3.72;1.40;;;;;;;0.11;100.00;100078.91;4978286;28;20059;-61
2022/02/14 02:57:03;;;;;;;5.13;1.17;;;;;;;0.46;100.00;100120.66;4968038;28;20912;-60
2022/02/14 02:59:47;;;;;;;3.60;1.15;;;;;;;0.45;100.00;100141.50;4974307;28;20057;-61
2022/02/14 03:02:32;;;;;;;1.95;1.23;;;;;;;0.18;100.00;100133.84;4972903;28;20053;-59
2022/02/14 03:05:17;;;;;;;3.78;1.35;;;;;;;0.02;100.00;100129.06;4962896;28;20402;-62
2022/02/14 03:08:01;;;;;;;2.72;1.30;;;;;;;0.17;100.00;100131.19;4983041;28;20485;-61
2022/02/14 03:10:46;;;;;;;4.50;1.23;;;;;;;0.35;100.00;100142.97;4980212;28;20054;-55
2022/02/14 03:13:30;;;;;;;3.38;1.35;;;;;;;0.26;100.00;100118.38;4989228;28;20057;-61
2022/02/14 03:16:16;;;;;;;3.40;1.20;;;;;;;0.38;100.00;100116.97;4964857;28;20092;-59
2022/02/14 03:19:00;;;;;;;2.85;1.40;;;;;;;0.23;100.00;100126.16;4988573;28;20060;-61
2022/02/14 03:21:45;;;;;;;2.70;1.30;;;;;;;0.17;100.00;100119.91;4977022;28;20485;-58
2022/02/14 03:24:30;;;;;;;4.35;1.40;;;;;;;0.27;100.00;100118.41;4983149;28;20472;-63
2022/02/14 03:27:15;;;;;;;3.92;1.40;;;;;;;0.32;100.00;100121.16;4941513;28;20080;-59
2022/02/14 03:29:59;;;;;;;3.88;1.27;;;;;;;0.51;100.00;100115.56;4968550;28;20105;-56
2022/02/14 03:32:44;;;;;;;2.60;0.90;;;;;;;0.32;100.00;100105.50;4980911;28;20771;-61
2022/02/14 03:35:29;;;;;;;2.75;1.27;;;;;;;0.34;100.00;100089.06;4972915;28;20057;-63
2022/02/14 03:38:14;;;;;;;;;;;;;;;0.56;100.00;100103.53;4981801;28;20741;-59
2022/02/14 03:40:58;;;;;;;4.80;1.50;;;;;;;0.13;100.00;100103.25;4958074;28;19929;-61
2022/02/14 03:43:42;;;;;;;2.22;1.20;;;;;;;-0.24;100.00;100057.09;4983149;28;20054;-66
2022/02/14 03:46:27;;;;;;;3.22;1.50;;;;;;;0.09;100.00;100089.28;4987321;28;20065;-59
2022/02/14 03:49:11;;;;;;;3.28;1.50;;;;;;;-0.09;100.00;100099.19;4997880;28;20130;-57
2022/02/14 03:51:56;;;;;;;3.42;1.55;;;;;;;0.04;100.00;100106.53;4957742;28;20105;-59
2022/02/14 03:54:40;;;;;;;5.03;1.40;;;;;;;0.27;100.00;100101.91;4975881;28;20743;-61
2022/02/14 03:57:25;;;;;;;3.03;1.30;;;;;;;0.42;100.00;100102.28;4973037;28;20070;-62
2022/02/14 04:00:12;;;;;;;3.85;1.52;;;;;;;0.30;100.00;100091.53;4985890;28;20100;-61
2022/02/14 04:02:56;;;;;;;4.78;1.15;;;;;;;-0.15;100.00;100086.88;4966168;28;20056;-65
2022/02/14 04:05:41;;;;;;;5.47;1.48;;;;;;;-0.22;100.00;100095.41;4988295;28;20053;-64
2022/02/14 04:08:27;;;;;;;2.50;1.20;;;;;;;-0.13;100.00;100097.34;4957460;28;20069;-65
2022/02/14 04:11:11;;;;;;;3.92;1.40;;;;;;;-0.38;100.00;100046.31;4966952;28;20068;-63
2022/02/14 04:13:56;;;;;;;3.25;0.98;;;;;;;-0.10;100.00;100115.69;4985400;28;20828;-62
2022/02/14 04:16:40;;;;;;;3.60;1.33;;;;;;;0.16;100.00;100098.16;4971450;28;20053;-63
2022/02/14 04:19:24;;;;;;;3.80;1.02;;;;;;;0.37;100.00;100089.16;4966873;28;20092;-63
2022/02/14 04:22:09;;;;;;;2.70;1.20;;;;;;;0.32;100.00;100063.78;4980040;28;20053;-71
2022/02/14 04:24:54;;;;;;;3.38;1.35;;;;;;;0.01;100.00;100043.88;4981401;28;20053;-61
2022/02/14 04:27:38;;;;;;;2.88;1.30;;;;;;;0.32;100.00;100100.31;4958885;28;20117;-62
2022/02/14 04:30:25;;;;;;;2.50;1.38;;;;;;;0.18;100.00;100063.44;4969963;28;20053;-67
2022/02/14 04:33:10;;;;;;;4.45;1.63;;;;;;;0.28;100.00;100094.13;4996802;28;20061;-61
2022/02/14 04:35:54;;;;;;;3.67;1.63;;;;;;;0.11;100.00;100090.19;4972001;28;20050;-63
2022/02/14 04:38:38;;;;;;;2.67;1.27;;;;;;;-0.22;100.00;100043.28;4970887;28;20298;-62
2022/02/14 04:41:23;;;;;;;2.85;1.20;;;;;;;-0.07;100.00;100055.84;4977238;28;20065;-69
2022/02/14 04:44:08;;;;;;;4.82;1.38;;;;;;;0.06;100.00;100104.84;4970709;28;20422;-64
2022/02/14 04:46:54;;;;;;;5.05;1.40;;;;;;;-0.24;100.00;100097.06;4984091;28;20176;-64
2022/02/14 04:49:38;;;;;;;3.55;1.50;;;;;;;-0.19;100.00;100099.81;4999155;28;20060;-64
2022/02/14 04:52:23;;;;;;;7.93;1.25;;;;;;;-0.09;100.00;100083.56;4942068;28;20053;-67
2022/02/14 04:55:08;;;;;;;4.97;1.40;;;;;;;-0.07;100.00;100064.53;4975093;28;20145;-65
2022/02/14 04:57:53;;;;;;;3.20;0.98;;;;;;;0.09;100.00;100058.88;4969216;28;20069;-66
2022/02/14 05:00:37;;;;;;;1.95;1.33;;;;;;;-0.27;100.00;100044.00;4974673;28;20044;-67
2022/02/14 05:03:22;;;;;;;3.63;1.27;;;;;;;-0.08;100.00;100086.22;4984197;28;20060;-65
2022/02/14 05:06:06;;;;;;;3.63;1.20;;;;;;;-0.19;100.00;100074.63;4989449;28;20076;-67
2022/02/14 05:08:51;;;;;;;3.95;1.30;;;;;;;-0.43;100.00;100023.59;4961369;28;20402;-62
2022/02/14 05:11:35;;;;;;;4.70;1.45;;;;;;;0.12;100.00;100076.34;4937779;28;20050;-64
2022/02/14 05:14:20;;;;;;;3.40;1.45;;;;;;;0.24;100.00;100078.38;4945494;28;20056;-65
2022/02/14 05:17:05;;;;;;;3.85;1.45;;;;;;;-0.19;100.00;100084.19;4951156;28;20452;-64
2022/02/14 05:19:49;;;;;;;4.03;1.52;;;;;;;-0.17;100.00;100072.94;4983608;28;20048;-66
2022/02/14 05:22:34;;;;;;;2.75;1.42;;;;;;;0.07;100.00;100084.88;4973704;28;20097;-65
2022/02/14 05:25:18;;;;;;;4.13;1.98;;;;;;;-0.21;100.00;100078.91;4982361;28;20097;-70
2022/02/14 05:28:07;;;;;;;5.13;1.85;;;;;;;0.02;100.00;100082.13;4955899;28;20134;-64
2022/02/14 05:30:51;;;;;;;5.45;1.52;;;;;;;0.14;100.00;100082.47;4995311;28;20040;-64
2022/02/14 05:33:36;;;;;;;3.78;1.70;;;;;;;0.17;100.00;100089.47;4996051;28;20506;-65
2022/02/14 05:36:22;;;;;;;4.32;1.55;;;;;;;-0.17;100.00;100088.59;4980034;28;20049;-65
2022/02/14 05:39:06;;;;;;;3.55;1.40;;;;;;;-0.24;100.00;100096.16;4966426;28;20045;-66
2022/02/14 05:41:51;;;;;;;2.50;1.30;;;;;;;-0.05;100.00;100073.28;4964433;28;20041;-64
2022/02/14 05:44:35;;;;;;;3.00;1.50;;;;;;;0.04;100.00;100093.50;4958894;28;20479;-68
2022/02/14 05:47:20;;;;;;;5.10;1.90;;;;;;;-0.05;100.00;100095.84;4986569;28;20041;-67
2022/02/14 05:50:06;;;;;;;2.40;1.67;;;;;;;-0.45;100.00;100048.69;5004041;28;20056;-67
2022/02/14 05:52:50;;;;;;;3.70;1.42;;;;;;;-0.02;100.00;100085.50;4976635;28;20816;-67
2022/02/14 05:55:35;;;;;;;4.07;1.50;;;;;;;-0.09;100.00;100083.56;4970653;28;20093;-64
2022/02/14 05:58:19;;;;;;;3.53;1.52;;;;;;;-0.17;100.00;100095.50;4944605;28;20545;-66
2022/02/14 06:01:03;;;;;;;5.22;1.60;;;;;;;-0.41;100.00;100043.63;4969391;28;20061;-65
2022/02/14 06:03:48;;;;;;;5.22;2.22;;;;;;;0.01;100.00;100083.84;4978789;28;20513;-68
2022/02/14 06:06:33;;;;;;;5.18;1.80;;;;;;;0.12;100.00;100084.16;4994886;28;20138;-65
2022/02/14 06:09:17;;;;;;;6.18;1.77;;;;;;;0.13;100.00;100092.84;4968458;28;20392;-65
2022/02/14 06:12:03;;;;;;;3.45;1.77;;;;;;;0.16;100.00;100075.56;4970011;28;20069;-65
2022/02/14 06:14:47;;;;;;;4.53;1.90;;;;;;;0.36;100.00;100084.78;4985533;28;20529;-66
2022/02/14 06:17:34;;;;;;;3.97;1.90;;;;;;;0.42;100.00;100074.50;4981383;28;20734;-64
2022/02/14 06:20:18;;;;;;;3.75;1.67;;;;;;;0.47;100.00;100087.66;4984454;28;20058;-59
2022/02/14 06:23:03;;;;;;;3.78;1.73;;;;;;;0.32;100.00;100035.13;4977986;28;20104;-65
2022/02/14 06:25:48;;;;;;;5.53;1.88;;;;;;;0.64;100.00;100088.94;4977891;28;20771;-62
2022/02/14 06:28:38;;;;;;;4.13;1.55;;;;;;;0.50;100.00;100080.78;4976192;28;20082;-60
2022/02/14 06:31:26;;;;;;;3.22;1.65;;;;;;;0.38;100.00;100049.19;4953945;28;20058;-60
2022/02/14 06:34:11;;;;;;;3.47;1.75;;;;;;;0.55;100.00;100083.50;4946918;28;20132;-61
2022/02/14 06:36:56;;;;;;;4.63;1.80;;;;;;;0.88;100.00;100092.13;4967964;28;20170;-69
2022/02/14 06:39:42;;;;;;;3.42;1.73;;;;;;;0.81;100.00;100098.03;4979556;28;20050;-63
2022/02/14 06:42:26;;;;;;;3.50;1.77;;;;;;;0.77;100.00;100089.28;4981505;28;20056;-63
2022/02/14 06:45:11;;;;;;;4.68;2.30;;;;;;;0.71;100.00;100055.19;4984129;28;20068;-63
2022/02/14 06:47:56;;;;;;;5.95;2.30;;;;;;;1.28;100.00;100113.06;4947565;28;20053;-57
2022/02/14 06:50:40;;;;;;;;;;;;;;;0.82;100.00;100097.22;4991706;28;20112;-59
2022/02/14 06:53:26;;;;;;;4.78;2.55;;;;;;;0.58;100.00;100100.09;4983101;28;19924;-61
2022/02/14 06:56:13;;;;;;;7.05;2.60;;;;;;;0.54;100.00;100094.75;4960815;28;20061;-66
2022/02/14 06:58:58;;;;;;;6.97;2.33;;;;;;;0.47;100.00;100090.25;4980246;28;20084;-61
2022/02/14 07:01:42;;;;;;;6.85;2.50;;;;;;;0.41;100.00;100084.88;4969803;28;20136;-63
2022/02/14 07:04:27;;;;;;;7.18;2.35;;;;;;;0.61;100.00;100084.53;4966042;28;20050;-63
2022/02/14 07:07:18;;;;;;;4.72;2.45;;;;;;;0.98;100.00;100088.91;4978640;28;20045;-59
2022/02/14 07:10:03;;;;;;;6.15;2.38;;;;;;;1.03;100.00;100089.88;4980952;28;20141;-61
2022/02/14 07:12:48;;;;;;;6.60;2.53;;;;;;;0.98;100.00;100092.38;4953107;28;20471;-57
2022/02/14 07:15:32;;;;;;;4.97;2.33;;;;;;;0.71;100.00;100094.31;4951392;28;20058;-62
2022/02/14 07:18:17;;;;;;;4.22;2.30;;;;;;;0.62;100.00;100090.63;4962766;28;20052;-56
2022/02/14 07:21:01;;;;;;;7.18;2.58;;;;;;;0.54;100.00;100084.31;4971741;28;20053;-63
2022/02/14 07:23:46;;;;;;;5.18;2.33;;;;;;;0.80;100.00;100097.19;4975313;28;20053;-59
2022/02/14 07:26:31;;;;;;;4.18;2.22;;;;;;;0.76;100.00;100092.75;4961163;28;20112;-56
2022/02/14 07:29:15;;;;;;;5.15;2.10;;;;;;;0.87;100.00;100079.94;4959039;28;20097;-67
2022/02/14 07:32:01;;;;;;;4.35;2.70;;;;;;;0.89;100.00;100081.72;4957621;28;20085;-63
2022/02/14 07:34:47;;;;;;;6.18;2.95;;;;;;;1.00;100.00;100089.78;4976106;28;20146;-64
2022/02/14 07:37:33;;;;;;;7.18;2.72;;;;;;;0.91;100.00;100076.53;4953216;28;20073;-72
2022/02/14 07:40:18;;;;;;;6.35;2.63;;;;;;;1.13;100.00;100077.06;4925291;28;20089;-56
2022/02/14 07:43:02;;;;;;;6.82;2.67;;;;;;;1.03;100.00;100027.22;4955375;28;20061;-58
2022/02/14 07:45:47;;;;;;;;;;;;;;;1.58;100.00;100077.16;4958133;28;20046;-57
2022/02/14 07:48:32;;;;;;;5.13;2.63;;;;;;;1.34;100.00;100060.97;4949866;28;19924;-66
2022/02/14 07:51:19;;;;;;;7.72;2.67;;;;;;;0.92;100.00;100066.16;4966285;28;20054;-56
2022/02/14 07:54:04;;;;;;;4.20;2.25;;;;;;;0.97;100.00;100032.28;4963101;28;20118;-64
2022/02/14 07:56:49;;;;;;;4.50;2.47;;;;;;;1.47;100.00;100074.34;4954630;28;20693;-59
2022/02/14 07:59:33;;;;;;;6.85;3.30;;;;;;;1.56;100.00;100058.84;4944655;28;20141;-59
2022/02/14 08:02:18;;;;;;;6.95;3.10;;;;;;;1.39;100.00;100067.16;4919572;28;20098;-59
2022/02/14 08:05:03;;;;;;;6.13;3.15;;;;;;;1.15;100.00;99970.03;4945678;28;20137;-58
2022/02/14 08:07:49;;;;;;;6.72;2.67;;;;;;;2.21;100.00;100083.63;4931633;28;20058;-63
2022/02/14 08:10:35;;;;;;;7.32;2.33;;;;;;;2.37;100.00;100090.88;4943663;28;20141;-61
2022/02/14 08:13:20;;;;;;;6.40;2.63;;;;;;;2.61;100.00;100066.00;4948612;28;20085;-51
2022/02/14 08:16:05;;;;;;;8.23;2.88;;;;;;;2.93;100.00;100087.47;4957131;28;20146;-61
2022/02/14 08:18:49;;;;;;;6.53;2.97;;;;;;;3.90;100.00;100080.91;4949818;28;20100;-57
2022/02/14 08:21:34;;;;;;;4.97;2.75;;;;;;;4.34;100.00;100070.88;4976043;28;20057;-60
2022/02/14 08:24:19;;;;;;;5.80;3.00;;;;;;;4.61;100.00;100086.88;4944321;28;20050;-63
2022/02/14 08:27:04;;;;;;;6.50;2.95;;;;;;;5.70;100.00;100086.69;4968250;28;20081;-64
2022/02/14 08:29:51;;;;;;;4.40;2.80;;;;;;;6.69;100.00;100068.53;4973762;28;20053;-59
2022/02/14 08:32:35;;;;;;;8.27;2.88;;;;;;;6.87;100.00;100084.38;4975636;28;20108;-60
2022/02/14 08:35:22;;;;;;;8.85;3.20;;;;;;;8.03;95.17;100079.66;4982715;28;20056;-58
2022/02/14 08:38:07;;;;;;;6.50;3.35;;;;;;;8.65;85.92;100090.75;4980181;28;20549;-60
2022/02/14 08:40:51;;;;;;;6.63;3.08;;;;;;;9.12;81.28;100091.25;4983981;28;20066;-61
2022/02/14 08:43:35;;;;;;;6.03;3.00;;;;;;;8.77;80.53;100077.44;4977482;28;20053;-60
2022/02/14 08:46:21;;;;;;;5.30;3.03;;;;;;;8.91;80.11;100093.19;4978923;28;20052;-63
2022/02/14 08:49:06;;;;;;;9.60;3.55;;;;;;;8.63;78.37;100092.50;4981298;28;20097;-56
2022/02/14 08:51:52;;;;;;;5.45;3.60;;;;;;;9.49;76.47;100089.97;4975827;28;20450;-61
2022/02/14 08:54:36;;;;;;;6.78;3.67;;;;;;;10.19;73.46;100094.47;4975494;28;20430;-62
2022/02/14 08:57:21;;;;;;;7.22;4.07;;;;;;;10.51;71.97;100093.13;4980572;28;20086;-59
2022/02/14 09:00:08;;;;;;;7.65;3.72;;;;;;;9.36;75.49;100090.13;4980991;28;20073;-62
2022/02/14 09:02:52;;;;;;;6.57;3.47;;;;;;;9.40;75.57;100082.16;4985909;28;20572;-60
2022/02/14 09:05:36;;;;;;;6.22;3.60;;;;;;;8.74;77.73;100079.22;4978831;28;20086;-60
2022/02/14 09:08:23;;;;;;;5.68;3.90;;;;;;;9.17;75.25;100093.81;4979755;28;20538;-59
2022/02/14 09:11:11;;;;;;;7.88;3.63;;;;;;;9.65;75.15;100081.88;4981206;28;20177;-59
2022/02/14 09:14:01;;;;;;;6.32;4.00;;;;;;;8.74;77.25;100087.16;4964017;28;20061;-60
2022/02/14 09:16:49;;;;;;;4.80;3.75;;;;;;;8.70;78.08;100080.13;4981597;28;20431;-58
2022/02/14 09:19:33;;;;;;;5.72;3.60;;;;;;;9.37;75.78;100081.28;4983846;28;20081;-60
2022/02/14 09:22:20;;;;;;;4.80;3.42;;;;;;;10.75;71.57;100091.88;4980471;28;20042;-58
2022/02/14 09:25:05;;;;;;;5.90;3.50;;;;;;;9.97;69.92;100047.94;4965370;28;20502;-59
2022/02/14 09:27:51;;;;;;;6.70;4.00;;;;;;;10.52;69.54;100075.44;4939127;28;20081;-58
2022/02/14 09:30:37;;;;;;;5.95;3.42;;;;;;;10.27;66.05;100061.66;4963059;28;20150;-60
2022/02/14 09:33:24;;;;;;;7.43;4.00;;;;;;;11.19;65.81;100073.47;4958895;28;20057;-63
2022/02/14 09:36:10;;;;;;;7.00;3.70;;;;;;;11.21;63.00;100074.28;4943685;28;20081;-60
2022/02/14 09:38:55;;;;;;;6.68;4.18;;;;;;;10.63;63.12;100028.41;4948051;28;20057;-60
2022/02/14 09:41:40;;;;;;;6.93;4.00;;;;;;;12.10;61.54;100063.69;4950297;28;20125;-65
2022/02/14 09:44:27;;;;;;;7.32;4.43;;;;;;;11.38;60.31;100074.84;4916502;28;20134;-58
2022/02/14 09:47:13;;;;;;;6.82;4.25;;;;;;;11.23;61.57;100073.34;4934088;29;20169;-63
2022/02/14 09:49:58;;;;;;;7.10;4.65;;;;;;;12.03;59.14;100037.28;4944233;28;20062;-61
2022/02/14 09:52:42;;;;;;;6.25;3.83;;;;;;;13.31;55.92;100077.66;4958901;28;20045;-62
2022/02/14 09:55:27;;;;;;;7.18;3.95;;;;;;;14.22;48.33;100081.31;4961438;28;20090;-66
2022/02/14 09:58:12;;;;;;;7.00;3.90;;;;;;;15.32;44.89;100084.88;4963512;28;20456;-64
2022/02/14 10:00:56;;;;;;;;;;;;;;;15.50;46.99;100086.06;4949440;28;20133;-67
2022/02/14 10:03:57;;;;;;;7.72;4.47;;;;;;;15.24;44.28;100046.84;4984433;28;19985;-62
2022/02/14 10:06:46;;;;;;;5.80;4.28;;;;;;;15.52;43.76;100063.69;4958729;28;20062;-60
2022/02/14 10:09:37;;;;;;;5.50;4.20;;;;;;;14.41;42.83;100056.72;4935551;29;20054;-64
2022/02/14 10:12:21;;;;;;;9.57;4.38;;;;;;;12.84;47.87;100059.31;4943791;28;20421;-61
2022/02/14 10:15:07;;;;;;;7.80;4.15;;;;;;;12.72;51.68;100071.13;4958640;28;20109;-65
2022/02/14 10:17:59;;;;;;;6.97;4.80;;;;;;;14.62;46.08;100076.50;4944979;28;20046;-60
2022/02/14 10:20:43;;;;;;;6.70;4.65;;;;;;;14.45;44.37;100074.38;4981081;28;20085;-65
2022/02/14 10:23:28;;;;;;;7.45;4.80;;;;;;;14.34;44.87;100060.50;4964796;28;20546;-60
2022/02/14 10:26:18;;;;;;;7.22;4.63;;;;;;;13.92;45.53;100021.72;4969531;28;20166;-60
2022/02/14 10:29:19;;;;;;;7.85;4.88;;;;;;;13.48;46.67;100067.41;4953698;28;20534;-61
2022/02/14 10:32:20;;;;;;;6.72;4.60;;;;;;;13.72;47.05;100069.41;4967995;28;20061;-60
2022/02/14 10:35:09;;;;;;;8.63;4.63;;;;;;;13.69;49.48;100062.38;4973458;28;20057;-63
2022/02/14 10:37:54;;;;;;;6.03;4.72;;;;;;;14.03;48.13;100067.63;4969818;28;20483;-62
2022/02/14 10:40:40;;;;;;;;;;;;;;;14.65;48.53;100063.06;4936016;29;20054;-61
2022/02/14 10:43:27;;;;;;;;;;;;;;;15.05;49.55;100064.41;4923843;29;19994;-61
2022/02/14 10:46:20;;;;;;;7.68;5.28;;;;;;;14.51;45.44;100057.31;4931858;28;20436;-61
2022/02/14 10:49:06;;;;;;;7.35;5.22;;;;;;;14.64;44.92;100056.84;4966926;28;20129;-63
2022/02/14 10:51:53;;;;;;;8.82;5.65;;;;;;;15.74;39.75;100032.56;4964339;28;20525;-61
2022/02/14 10:54:45;;;;;;;7.97;4.80;;;;;;;15.09;43.63;100035.78;4929199;28;20541;-65
2022/02/14 10:57:33;;;;;;;8.05;5.75;;;;;;;15.13;42.43;100011.59;4955114;28;20134;-61
2022/02/14 11:00:23;;;;;;;8.48;5.43;;;;;;;14.45;44.63;100041.47;4961880;28;20434;-62
2022/02/14 11:03:11;;;;;;;7.88;5.60;;;;;;;14.37;45.23;100043.50;4952348;28;20098;-62
2022/02/14 11:05:57;;;;;;;7.32;5.10;;;;;;;14.51;43.72;100039.50;4938599;28;20073;-63
2022/02/14 11:08:43;;;;;;;7.07;5.30;;;;;;;13.86;45.07;100045.91;4966691;28;20049;-62
2022/02/14 11:11:32;;;;;;;9.55;5.97;;;;;;;13.80;47.18;100051.41;4950235;28;20050;-61
2022/02/14 11:14:19;;;;;;;7.25;5.43;;;;;;;15.15;44.13;100051.63;4917612;28;20582;-60
2022/02/14 11:17:03;;;;;;;7.38;5.47;;;;;;;14.15;43.58;100019.25;4962214;28;20185;-64
2022/02/14 11:19:50;;;;;;;;;;;;;;;13.59;45.53;100036.91;4972559;28;20096;-60
2022/02/14 11:22:44;;;;;;;8.80;5.93;;;;;;;14.09;47.36;100031.91;4945124;28;19977;-60
2022/02/14 11:25:39;;;;;;;8.65;5.65;;;;;;;13.76;47.39;100042.63;4951762;28;20444;-58
2022/02/14 11:28:39;;;;;;;9.52;6.10;;;;;;;14.08;48.64;100028.34;4952730;28;20598;-60
2022/02/14 11:31:30;;;;;;;7.40;5.45;;;;;;;14.63;46.30;100032.91;4935403;28;20093;-60
2022/02/14 11:34:15;;;;;;;7.78;5.50;;;;;;;14.64;43.67;100032.84;4932757;28;20406;-60
2022/02/14 11:37:00;;;;;;;;;;;;;;;15.23;44.73;100031.72;4968987;28;20054;-59
2022/02/14 11:39:45;;;;;;;8.35;6.20;;;;;;;15.42;41.30;100024.00;4953099;28;19929;-63
2022/02/14 11:42:30;;;;;;;7.43;5.38;;;;;;;14.95;43.01;100016.72;4951899;28;20057;-60
2022/02/14 11:45:15;;;;;;;;;;;;;;;13.66;47.66;100032.28;4967634;28;20522;-58
2022/02/14 11:48:26;;;;;;;8.65;5.82;;;;;;;13.95;51.18;100040.31;4968906;28;19976;-64
2022/02/14 11:51:17;;;;;;;15.00;7.03;;;;;;;14.07;48.62;100034.63;4962268;28;20124;-62
2022/02/14 11:54:05;;;;;;;9.43;6.25;;;;;;;13.13;50.45;100031.06;4950832;28;20046;-63
2022/02/14 11:56:50;;;;;;;8.15;6.13;;;;;;;14.45;48.49;100004.13;4966062;28;20057;-62
2022/02/14 11:59:34;;;;;;;9.18;5.90;;;;;;;14.41;46.28;100021.16;4968097;28;20089;-60
2022/02/14 12:02:27;;;;;;;8.70;6.18;;;;;;;14.20;47.29;100041.31;4967396;28;20054;-60
2022/02/14 12:05:41;;;;;;;10.43;5.68;;;;;;;13.54;50.27;100043.28;4946954;28;20164;-64
2022/02/14 12:08:46;;;;;;;9.40;6.50;;;;;;;12.45;53.52;100033.66;4947985;28;20085;-67
2022/02/14 12:11:45;;;;;;;11.32;6.68;;;;;;;11.16;60.56;100037.19;4951252;28;20126;-65
2022/02/14 12:14:30;;;;;;;10.07;6.75;;;;;;;11.40;63.20;100020.81;4920368;29;20129;-59
2022/02/14 12:20:53;;;;;;;8.30;6.05;;;;;;;11.32;61.91;100040.47;4861351;29;20055;-57
2022/02/14 12:23:55;;;;;;;10.88;6.65;;;;;;;11.04;66.16;100042.72;4888273;29;20415;-64
2022/02/14 12:26:41;;;;;;;10.88;6.65;;;;;;;10.84;67.32;100047.50;4904182;29;20074;-59
2022/02/14 12:29:39;;;;;;;10.65;6.75;;;;;;;10.76;68.82;100053.84;4903428;29;20075;-60
2022/02/14 12:32:24;;;;;;;9.75;6.78;;;;;;;9.80;71.48;100018.16;4900287;29;20204;-65
2022/02/14 12:35:09;;;;;;;10.07;6.85;;;;;;;10.62;70.78;100045.22;4919372;29;20062;-63
2022/02/14 12:37:54;;;;;;;;;;;;;;;10.50;71.57;100037.47;4926841;29;20059;-54
2022/02/14 12:40:51;;;;;;;11.02;7.05;;;;;;;10.64;69.61;100036.34;4924406;29;19930;-61
2022/02/14 12:43:38;;;;;;;10.30;6.72;;;;;;;11.07;68.56;100028.56;4893387;29;20575;-63
2022/02/14 12:46:24;;;;;;;12.63;7.07;;;;;;;10.49;70.34;100036.63;4916347;29;20054;-56
2022/02/14 12:49:08;;;;;;;9.23;6.35;;;;;;;10.29;71.55;100033.38;4917348;29;20591;-60
2022/02/14 12:51:53;;;;;;;11.57;6.72;;;;;;;9.48;74.46;99994.72;4926808;29;20046;-57
2022/02/14 12:54:38;;;;;;;9.20;6.93;;;;;;;9.17;77.11;100032.97;4904112;29;20137;-61
2022/02/14 12:57:43;;;;;;;12.57;7.03;;;;;;;9.14;80.41;100038.34;4938551;28;20085;-58